HJFA4: James Fork nr Hackett 2S

                                SHEF ID:       HJFA4     James Fork nr Hackett 2S
STATION TYPE:

STAGE RIV-FLOW BAT-LOAD
ft cfs volt
Ccp-Rev Ccp-Rev Ccp-Rev
(America/Chicago)
04/27 00:00 13.78 1982 12.51
04/27 01:00 12.67 1709 12.48
04/27 02:00 11.66 1458 12.45
04/27 03:00 10.76 1247 12.43
04/27 04:00 9.98 1074 12.39
04/27 05:00 9.34 937 12.37
04/27 06:00 8.83 834 12.37
04/27 07:00 8.43 755 12.36
04/27 08:00 8.14 700 12.44
04/27 09:00 7.93 657 12.80
04/27 10:00 7.78 627 13.19
04/27 11:00 7.64 599 13.18
04/27 12:00 7.53 578 13.01
04/27 13:00 7.41 557 12.96
04/27 14:00 7.32 542 12.95
04/27 15:00 7.22 525 12.92
04/27 16:00 7.12 509 12.84
04/27 17:00 7.01 491 12.77
04/27 18:00 6.93 479 12.64
04/27 19:00 6.85 467 12.69
04/27 20:00 6.76 454 12.60
04/27 21:00 6.67 441 12.57
04/27 22:00 6.58 428 12.53
04/27 23:00 6.50 417 12.50
Data processed at Tue 28Apr2026 04:35 GMT

NOTICE: If you are parsing this page

Please convert to using our Data API. Starting early 2026 we will be migrating to: https://water.usace.army.mil with modern pages rendered in JavaScript. When this migration completes you will no longer be able to scrape this page! CWMSDataAPI (CDA)

Timeseries IDs (TSIDs)

TSIDs used from left to right in the data table
HACK.Stage.Inst.1Hour.0.Ccp-Rev
HACK.Flow.Inst.1Hour.0.Ccp-Rev
HACK.Volt-Battery Load.Inst.1Hour.0.Ccp-Rev

                            

All information presented herein is the property of the government of the United States of America and may be revised or deleted at any time without prior notice. Dissemination of this information without the expressed written consent of the Public Affairs Office, Tulsa District U.S. Army Corps of Engineers is strictly prohibited. These data are gathered electronically and, as presented, have NOT undergone any form of quality control. These data are NOT guaranteed to be valid or correct.